Bienvenue sur la page dédiée à la station météo de Courtenay (Loiret)

Retrouvez également nos données météorologiques sur:

UK Metoffice

Weather Underground

AWEKAS

Citizen Weather Observer Program (CWOP)



Rapports METAR à proximité

   
LFOJ - Montargis
Mise à jour: 18-12-2017 21:00
Nuageux  
Nuageux  
   Vent: Nord 18.5 km/h
Vent: Nord 18.5 km/h
Température: 5°C
éolien: 1°C
Point de rosée: 4°C
Humidité: 93%
Pression atmosphérique: 1030 hPa
Nuages: Nuageux
Visibilité: Supérieur à 10 km
Nébulosité: Nuageux 3700 ft
LFOJ 182000Z AUTO 01010KT 9999 OVC037 05/04 Q1030 TEMPO 4000 BR
LFOJ - Orléans
Mise à jour: 18-12-2017 21:00
Nuageux  
Nuageux  
   Vent: Nord 18.5 km/h
Vent: Nord 18.5 km/h
Température: 5°C
éolien: 1°C
Point de rosée: 4°C
Humidité: 93%
Pression atmosphérique: 1030 hPa
Nuages: Nuageux
Visibilité: Supérieur à 10 km
Nébulosité: Nuageux 3700 ft
LFOJ 182000Z AUTO 01010KT 9999 OVC037 05/04 Q1030 TEMPO 4000 BR
LFQB - Sens
Mise à jour: 18-12-2017 21:00
Nuageux  
Nuageux  
   Vent: NNO 7.4 km/h
Vent: NNO 7.4 km/h
Température: 6°C
éolien: 4°C
Point de rosée: 3°C
Humidité: 81%
Pression atmosphérique: 1029 hPa
Nuages: Nuageux
Visibilité: Supérieur à 10 km
Nébulosité: Nuageux 3500 ft
LFQB 182000Z AUTO 34004KT 9999 OVC035 06/03 Q1029
LFQB - Auxerre
Mise à jour: 18-12-2017 21:00
Nuageux  
Nuageux  
   Vent: NNO 7.4 km/h
Vent: NNO 7.4 km/h
Température: 6°C
éolien: 4°C
Point de rosée: 3°C
Humidité: 81%
Pression atmosphérique: 1029 hPa
Nuages: Nuageux
Visibilité: Supérieur à 10 km
Nébulosité: Nuageux 3500 ft
LFQB 182000Z AUTO 34004KT 9999 OVC035 06/03 Q1029
LFPO - Paris
Mise à jour: 18-12-2017 21:00
Partiellement nuageux  
Partiellement nuageux  
   Vent: NNO 13 km/h
Vent: NNO 13 km/h
Température: 6°C
éolien: 3°C
Point de rosée: 3°C
Humidité: 81%
Pression atmosphérique: 1031 hPa
Nuages: Partiellement nuageux
Visibilité: Supérieur à 10 km
Nébulosité: Peu de nuages 1600 ft,
Partiellement nuageux 4000 ft
LFPO 182000Z 34007KT 310V010 9999 FEW016 SCT040 06/03 Q1031 NOSIG
LFLX - Bourges
Mise à jour: 18-12-2017 21:00
Nuageux  
Nuageux  
   Vent: Nord 14.8 km/h
Vent: Nord 14.8 km/h
Température: 5°C
éolien: 2°C
Point de rosée: 3°C
Humidité: 87%
Pression atmosphérique: 1030 hPa
Nuages: Nuageux
Visibilité: Supérieur à 10 km
Nébulosité: Nuageux 3500 ft
LFLX 182000Z AUTO 01008KT 9999 OVC035 05/03 Q1030 NOSIG

Original script by  Saratoga-weather.org Adapted for the template by  Weerstation Leuven

Matériel utilisé:

Programme Météo
Meteohub

Meteohub